Data for 02/20/2006

Time Sea-Level Adjusted Pressure Absolute Pressure Temperature Relative Humidity Dew Point   
(mb) (inHg) (mb) (inHg) (C) (F) (%) (C) (F)
00:05 1016 30 845 24.95 -12.3 9.8 69 -17 1.4
00:10 1016 30 845 24.95 -12.5 9.5 67 -17.4 0.7
00:15 1016 30 845 24.95 -12.5 9.6 66 -17.5 0.5
00:20 1016 30 845 24.95 -12.7 9.2 68 -17.5 0.6
00:25 1016 30 845 24.95 -12.8 9 68 -17.6 0.4
00:30 1016 30 845 24.95 -12.8 8.9 67 -17.7 0.2
00:35 1016 30 845 24.95 -12.8 8.9 68 -17.5 0.4
00:40 1016 30 845 24.95 -12.8 8.9 67 -17.7 0.1
00:45 1016 30 845 24.95 -13.1 8.4 69 -17.7 0.2
00:50 1016 30 845 24.95 -13.1 8.4 68 -17.8 0
00:55 1016 30 845 24.95 -13.1 8.4 69 -17.6 0.2
01:00 1016 30 845 24.95 -13 8.6 68 -17.8 0
01:05 1016 30 845 24.95 -12.9 8.9 67 -17.7 0.1
01:10 1016 30 845 24.95 -13.1 8.4 68 -17.8 -0.1
01:15 1016 30 845 24.95 -13.4 7.9 69 -17.9 -0.3
01:20 1016 30 845 24.95 -13.5 7.8 69 -18 -0.4
01:25 1016 30 845 24.95 -13.5 7.8 67 -18.3 -0.9
01:30 1016 30 845 24.95 -14 6.9 70 -18.4 -1
01:35 1016 30 845 24.95 -14.1 6.6 71 -18.3 -1
01:40 1016 30 845 24.95 -14 6.9 70 -18.3 -1
01:45 1016 30 845 24.95 -13.9 7.1 69 -18.3 -1
01:50 1016 30 845 24.95 -13.8 7.3 69 -18.4 -1
01:55 1016 30 845 24.95 -13.7 7.4 69 -18.3 -0.9
02:00 1016 30 845 24.95 -13.8 7.2 70 -18.1 -0.7
02:05 1016 30 845 24.95 -13.6 7.4 69 -18.2 -0.7
02:10 1016 30 845 24.95 -13.7 7.4 69 -18.3 -0.9
02:15 1016 30 845 24.95 -13.6 7.6 68 -18.2 -0.8
02:20 1016 30 845 24.95 -13.7 7.4 69 -18.2 -0.7
02:25 1016 30 845 24.95 -14 6.9 73 -17.7 0.1
02:30 1016 30 845 24.95 -13.6 7.6 70 -17.9 -0.2
02:35 1016 30 845 24.95 -13.7 7.4 68 -18.3 -1
02:40 1016 30 845 24.95 -14.3 6.3 71 -18.5 -1.4
02:45 1016 30 845 24.95 -14.4 6.1 70 -18.7 -1.6
02:50 1016 30 845 24.95 -14.6 5.7 74 -18.3 -0.9
02:55 1016 30 845 24.95 -14.5 5.9 72 -18.6 -1.5
03:00 1016 30 845 24.95 -14.5 5.9 72 -18.6 -1.4
03:05 1016 30 845 24.95 -14.4 6.1 71 -18.6 -1.4
03:10 1016 30 845 24.95 -14.1 6.7 69 -18.5 -1.3
03:15 1016 30 845 24.95 -14 6.8 73 -17.8 0
03:20 1016 30 845 24.95 -13.5 7.8 68 -18.1 -0.6
03:25 1016 30 845 24.95 -13.6 7.5 69 -18.2 -0.7
03:30 1016 30 845 24.95 -13.3 8.1 68 -18 -0.5
03:35 1016 30 845 24.95 -13.2 8.3 68 -17.9 -0.2
03:40 1016 30 845 24.95 -13.2 8.2 67 -18.2 -0.7
03:45 1016 30 845 24.95 -13.1 8.4 71 -17.3 0.8
03:50 1016 30 845 24.95 -13.2 8.2 68 -18 -0.4
03:55 1016 30 845 24.95 -13.3 8 67 -18.2 -0.8
04:00 1016 30 845 24.95 -13.9 7 69 -18.4 -1.1
04:05 1016 30 845 24.95 -14.2 6.5 70 -18.5 -1.4
04:10 1016 30 845 24.95 -14.5 5.8 70 -18.9 -2
04:15 1016 30 845 24.95 -14.9 5.2 72 -18.9 -2
04:20 1016 30 845 24.95 -14.4 6.1 73 -18.3 -0.9
04:25 1016 30 845 24.95 -13.7 7.3 70 -18 -0.5
04:30 1016 30 845 24.95 -13.6 7.5 69 -18.2 -0.8
04:35 1016 30 845 24.95 -13.8 7.2 70 -18.2 -0.7
04:40 1016 30 845 24.95 -13.7 7.4 68 -18.3 -1
04:45 1016 30 845 24.95 -13.6 7.5 69 -18.1 -0.6
04:50 1016 30 845 24.95 -13.5 7.7 67 -18.4 -1.1
04:55 1016 30 845 24.95 -14 6.7 69 -18.5 -1.3
05:00 1016 30 845 24.95 -13.7 7.3 68 -18.5 -1.3
05:05 1016 30 845 24.95 -13.6 7.5 68 -18.4 -1
05:10 1016 30 845 24.95 -13.7 7.3 69 -18.2 -0.8
05:15 1016 30 845 24.95 -13.5 7.8 68 -18.2 -0.8
05:20 1016 30 845 24.95 -12.9 8.9 67 -17.8 -0.1
05:25 1016 30 846 24.98 -12.7 9.2 66 -17.8 -0.1
05:30 1016 30 846 24.98 -12.2 10 65 -17.5 0.4
05:35 1016 30 846 24.98 -12.5 9.5 66 -17.5 0.5
05:40 1017 30.03 846 24.98 -12.9 8.8 68 -17.6 0.3
05:45 1017 30.03 846 24.98 -13 8.6 69 -17.5 0.4
05:50 1017 30.03 846 24.98 -13 8.6 69 -17.6 0.4
05:55 1017 30.03 846 24.98 -12.7 9.1 68 -17.5 0.6
06:00 1017 30.03 846 24.98 -12.9 8.8 70 -17.3 0.8
06:05 1017 30.03 846 24.98 -13 8.7 69 -17.6 0.4
06:10 1017 30.03 846 24.98 -12.9 8.8 69 -17.4 0.6
06:15 1017 30.03 846 24.98 -12.5 9.4 68 -17.3 0.9
06:20 1017 30.03 846 24.98 -12.2 10 66 -17.3 0.8
06:25 1017 30.03 846 24.98 -12 10.4 65 -17.4 0.7
06:30 1017 30.03 846 24.98 -11.9 10.5 65 -17.2 1.1
06:35 1016 30 846 24.98 -11.9 10.7 64 -17.3 0.8
06:40 1016 30 846 24.98 -11.6 11.1 63 -17.3 0.9
06:45 1016 30 846 24.98 -11.5 11.2 63 -17.3 0.8
06:50 1016 30 846 24.98 -11.5 11.4 62 -17.3 0.8
06:55 1016 30 846 24.98 -11.8 10.7 65 -17.2 1
07:00 1016 30 846 24.98 -12 10.4 66 -17.2 1
07:05 1016 30 845 24.95 -12.3 9.9 68 -17.1 1.3
07:10 1016 30 845 24.95 -12.4 9.7 68 -17.1 1.2
07:15 1016 30 845 24.95 -12.6 9.3 69 -17.3 0.9
07:20 1016 30 845 24.95 -12.6 9.4 69 -17.1 1.2
07:25 1016 30 846 24.98 -13 8.5 71 -17.3 0.8
07:30 1016 30 845 24.95 -12.9 8.8 70 -17.3 0.9
07:35 1016 30 846 24.98 -12.5 9.4 68 -17.3 0.8
07:40 1016 30 846 24.98 -12.1 10.2 66 -17.2 1.1
07:45 1016 30 846 24.98 -12.2 10.1 67 -17.1 1.1
07:50 1016 30 846 24.98 -12.6 9.3 69 -17.2 1.1
07:55 1016 30 846 24.98 -12.9 8.8 71 -17 1.3
08:00 1017 30.03 846 24.98 -12.4 9.8 67 -17.3 0.8
08:05 1017 30.03 846 24.98 -11.9 10.5 65 -17.3 0.9
08:10 1017 30.03 846 24.98 -11.5 11.4 66 -16.5 2.2
08:15 1017 30.03 846 24.98 -11.4 11.5 65 -16.7 1.9
08:20 1017 30.03 846 24.98 -11.3 11.6 68 -16.1 3
08:25 1017 30.03 846 24.98 -11.5 11.4 67 -16.4 2.5
08:30 1017 30.03 846 24.98 -11.5 11.3 67 -16.5 2.2
08:35 1017 30.03 846 24.98 -11.3 11.7 67 -16.3 2.6
08:40 1017 30.03 846 24.98 -10.9 12.4 64 -16.5 2.3
08:45 1017 30.03 846 24.98 -10.5 13.2 62 -16.3 2.6
08:50 1017 30.03 846 24.98 -9.9 14.1 61 -16.1 3
08:55 1017 30.03 846 24.98 -9.5 15 57 -16.4 2.4
09:00 1017 30.03 846 24.98 -9.1 15.6 56 -16.3 2.7
09:05 1017 30.03 846 24.98 -8.8 16.1 55 -16.4 2.5
09:10 1017 30.03 846 24.98 -8.9 16.1 56 -16.2 2.8
09:15 1017 30.03 846 24.98 -8.9 16.1 55 -16.4 2.6
09:20 1017 30.03 846 24.98 -9 15.8 57 -16.1 3
09:25 1017 30.03 846 24.98 -9.4 15.1 57 -16.4 2.4
09:30 1017 30.03 846 24.98 -9.8 14.3 58 -16.6 2.1
09:35 1016 30 846 24.98 -9.3 15.2 54 -17.1 1.3
09:40 1017 30.03 846 24.98 -9.3 15.3 53 -17.3 0.9
09:45 1017 30.03 846 24.98 -8.8 16.2 50 -17.4 0.6
09:50 1017 30.03 846 24.98 -8.2 17.3 49 -17.2 1.1
09:55 1017 30.03 846 24.98 -8.5 16.8 52 -16.7 1.9
10:00 1017 30.03 846 24.98 -8.6 16.5 52 -16.8 1.8
10:05 1017 30.03 846 24.98 -7.9 17.8 51 -16.4 2.5
10:10 1017 30.03 846 24.98 -7.3 18.9 49 -16.3 2.6
10:15 1017 30.03 846 24.98 -6.8 19.7 47 -16.4 2.5
10:20 1016 30 846 24.98 -7.3 18.8 51 -15.9 3.4
10:25 1016 30 846 24.98 -7.5 18.5 50 -16.1 3
10:30 1016 30 846 24.98 -7.7 18.1 51 -16.1 3
10:35 1016 30 846 24.98 -8 17.7 52 -16.1 3
10:40 1016 30 846 24.98 -7.6 18.3 49 -16.5 2.3
10:45 1016 30 846 24.98 -7.4 18.7 50 -16.2 2.8
10:50 1017 30.03 846 24.98 -7.2 19 47 -16.6 2.1
10:55 1017 30.03 846 24.98 -7.4 18.6 50 -16.1 3
11:00 1017 30.03 846 24.98 -7 19.4 47 -16.4 2.4
11:05 1017 30.03 846 24.98 -6.2 20.8 45 -16.2 2.8
11:10 1017 30.03 846 24.98 -5.4 22.2 45 -15.7 3.8
11:15 1017 30.03 846 24.98 -5.1 22.9 42 -16.1 3
11:20 1016 30 846 24.98 -5.3 22.4 44 -15.8 3.5
11:25 1016 30 846 24.98 -4.5 23.9 43 -15.4 4.3
11:30 1016 30 846 24.98 -4.3 24.3 40 -15.9 3.4
11:35 1016 30 846 24.98 -4.1 24.7 38 -16.4 2.5
11:40 1016 30 846 24.98 -3.7 25.3 37 -16.3 2.6
11:45 1016 30 846 24.98 -4.4 24.1 43 -15.1 4.8
11:50 1016 30 845 24.95 -5.3 22.4 42 -16.2 2.8
11:55 1016 30 845 24.95 -5.5 22 44 -15.9 3.4
12:00 1016 30 845 24.95 -5.3 22.4 43 -16.2 2.9
12:05 1016 30 845 24.95 -4.9 23.2 41 -16.3 2.6
12:10 1016 30 845 24.95 -3.9 25 39 -16 3.1
12:15 1016 30 845 24.95 -4.1 24.6 41 -15.6 4
12:20 1016 30 845 24.95 -4.6 23.8 42 -15.7 3.7
12:25 1016 30 845 24.95 -4.3 24.3 41 -15.6 3.9
12:30 1016 30 845 24.95 -3.9 25.1 39 -15.9 3.3
12:35 1016 30 845 24.95 -3.5 25.7 39 -15.5 4.2
12:40 1016 30 845 24.95 -3.3 26 39 -15.3 4.4
12:45 1015 29.97 845 24.95 -3 26.6 37 -15.8 3.5
12:50 1015 29.97 845 24.95 -2.8 26.9 37 -15.6 3.8
12:55 1015 29.97 844 24.92 -2.8 27 38 -15.2 4.6
13:00 1015 29.97 844 24.92 -2.4 27.6 38 -15.1 4.9
13:05 1015 29.97 844 24.92 -2.6 27.3 38 -15.1 4.9
13:10 1015 29.97 844 24.92 -2.6 27.4 37 -15.3 4.5
13:15 1015 29.97 844 24.92 -2 28.5 35 -15.4 4.4
13:20 1015 29.97 844 24.92 -1.9 28.7 36 -15.2 4.7
13:25 1015 29.97 844 24.92 -1.5 29.2 36 -14.9 5.1
13:30 1015 29.97 844 24.92 -1.3 29.6 35 -15 4.9
13:35 1015 29.97 844 24.92 -1.3 29.6 38 -13.9 7
13:40 1015 29.97 844 24.92 -1.1 30.1 36 -14.3 6.2
13:45 1014 29.94 844 24.92 -0.4 31.3 34 -14.4 6.1
13:50 1014 29.94 844 24.92 -1.2 29.9 39 -13.5 7.7
13:55 1014 29.94 844 24.92 -1.9 28.6 37 -14.8 5.3
14:00 1014 29.94 844 24.92 -1.9 28.6 40 -13.9 7
14:05 1014 29.94 844 24.92 -1.4 29.4 36 -14.7 5.5
14:10 1014 29.94 843 24.89 -1.1 30.1 36 -14.5 5.9
14:15 1014 29.94 843 24.89 -0.7 30.8 35 -14.3 6.2
14:20 1014 29.94 843 24.89 -0.7 30.8 36 -14.1 6.6
14:25 1014 29.94 843 24.89 -0.6 31 35 -14.3 6.3
14:30 1014 29.94 843 24.89 -0.9 30.4 38 -13.6 7.6
14:35 1014 29.94 843 24.89 -1.5 29.2 40 -13.5 7.7
14:40 1014 29.94 843 24.89 -1.2 29.9 36 -14.4 6
14:45 1014 29.94 843 24.89 -0.3 31.4 34 -14.3 6.3
14:50 1014 29.94 843 24.89 -1.7 28.9 40 -13.8 7.2
14:55 1014 29.94 843 24.89 -2.3 27.8 41 -13.9 6.9
15:00 1014 29.94 843 24.89 -2 28.4 40 -13.8 7.2
15:05 1014 29.94 843 24.89 -2.1 28.3 40 -14 6.8
15:10 1014 29.94 843 24.89 -2 28.5 40 -13.8 7.1
15:15 1014 29.94 843 24.89 -2.2 28.1 41 -13.9 7.1
15:20 1014 29.94 843 24.89 -2.4 27.8 41 -13.9 7
15:25 1014 29.94 843 24.89 -1.7 28.9 39 -14 6.7
15:30 1014 29.94 843 24.89 -1.3 29.8 37 -14.1 6.7
15:35 1014 29.94 843 24.89 -1.2 29.9 37 -14 6.7
15:40 1014 29.94 843 24.89 -1.1 30 37 -14 6.8
15:45 1014 29.94 843 24.89 -1.3 29.7 38 -13.9 6.9
15:50 1014 29.94 843 24.89 -1.2 29.9 38 -13.8 7.1
15:55 1014 29.94 843 24.89 -1.2 29.9 39 -13.6 7.5
16:00 1013 29.91 843 24.89 -1.3 29.7 39 -13.6 7.5
16:05 1014 29.94 843 24.89 -1.2 29.8 40 -13.3 8.1
16:10 1013 29.91 843 24.89 -1.3 29.7 38 -13.9 7
16:15 1013 29.91 843 24.89 -1.3 29.7 39 -13.7 7.4
16:20 1014 29.94 843 24.89 -1.4 29.5 39 -13.6 7.6
16:25 1014 29.94 843 24.89 -1.6 29.2 41 -13.3 8.1
16:30 1013 29.91 843 24.89 -1.5 29.2 40 -13.6 7.6
16:35 1013 29.91 843 24.89 -1.8 28.8 41 -13.4 7.8
16:40 1013 29.91 843 24.89 -2 28.5 42 -13.2 8.3
16:45 1013 29.91 843 24.89 -1.9 28.6 43 -13 8.6
16:50 1013 29.91 843 24.89 -1.8 28.7 44 -12.7 9.2
16:55 1013 29.91 843 24.89 -2.1 28.2 45 -12.5 9.5
17:00 1013 29.91 842 24.86 -2.1 28.1 45 -12.4 9.6
17:05 1013 29.91 842 24.86 -1.9 28.6 45 -12.2 10
17:10 1013 29.91 842 24.86 -1.9 28.5 48 -11.4 11.4
17:15 1013 29.91 842 24.86 -1.9 28.5 49 -11.4 11.5
17:20 1013 29.91 842 24.86 -1.9 28.5 50 -10.9 12.3
17:25 1013 29.91 842 24.86 -1.9 28.6 51 -10.8 12.6
17:30 1013 29.91 842 24.86 -2 28.5 54 -10.2 13.7
17:35 1013 29.91 842 24.86 -2 28.4 52 -10.5 13
17:40 1013 29.91 842 24.86 -1.8 28.7 51 -10.6 13
17:45 1013 29.91 842 24.86 -1.8 28.7 53 -10.2 13.6
17:50 1013 29.91 842 24.86 -2 28.3 54 -10.1 13.8
17:55 1013 29.91 842 24.86 -2.3 27.9 57 -9.7 14.6
18:00 1013 29.91 842 24.86 -2.4 27.7 57 -9.8 14.4
18:05 1013 29.91 842 24.86 -2.3 27.8 53 -10.6 13
18:10 1013 29.91 842 24.86 -2.2 28 54 -10.2 13.6
18:15 1013 29.91 842 24.86 -2.2 28 56 -9.9 14.2
18:20 1013 29.91 842 24.86 -2.2 28 56 -9.8 14.4
18:25 1013 29.91 842 24.86 -2.4 27.8 57 -9.8 14.3
18:30 1013 29.91 842 24.86 -2.5 27.6 61 -8.9 16
18:35 1013 29.91 842 24.86 -2.7 27.2 64 -8.6 16.5
18:40 1013 29.91 842 24.86 -2.8 26.9 66 -8.3 17
18:45 1013 29.91 842 24.86 -3 26.6 67 -8.2 17.2
18:50 1013 29.91 843 24.89 -3 26.6 66 -8.4 16.9
18:55 1013 29.91 843 24.89 -3.1 26.5 65 -8.8 16.1
19:00 1013 29.91 843 24.89 -3 26.6 63 -9 15.8
19:05 1013 29.91 843 24.89 -3 26.6 64 -8.9 15.9
19:10 1013 29.91 843 24.89 -3 26.5 65 -8.6 16.4
19:15 1013 29.91 843 24.89 -3 26.6 68 -8.2 17.2
19:20 1013 29.91 843 24.89 -3.2 26.3 69 -8.1 17.4
19:25 1013 29.91 843 24.89 -3.2 26.2 69 -8.2 17.3
19:30 1013 29.91 843 24.89 -3.2 26.2 68 -8.3 17.1
19:35 1013 29.91 843 24.89 -3.2 26.2 68 -8.2 17.2
19:40 1013 29.91 843 24.89 -3.2 26.3 68 -8.2 17.2
19:45 1013 29.91 843 24.89 -3.2 26.2 68 -8.3 17.1
19:50 1013 29.91 843 24.89 -3.3 26.1 68 -8.4 16.8
19:55 1013 29.91 843 24.89 -3.3 26 67 -8.7 16.4
20:00 1013 29.91 843 24.89 -3.3 26.1 66 -8.7 16.4
20:05 1013 29.91 843 24.89 -3.4 26 68 -8.5 16.6
20:10 1013 29.91 843 24.89 -3.4 25.8 68 -8.4 16.8
20:15 1013 29.91 843 24.89 -3.4 25.8 69 -8.3 17
20:20 1013 29.91 843 24.89 -3.5 25.8 69 -8.4 16.9
20:25 1013 29.91 842 24.86 -3.5 25.8 69 -8.3 17
20:30 1013 29.91 842 24.86 -3.5 25.7 70 -8.3 17.1
20:35 1013 29.91 842 24.86 -3.5 25.7 70 -8.2 17.2
20:40 1013 29.91 842 24.86 -3.5 25.7 70 -8.1 17.3
20:45 1013 29.91 842 24.86 -3.5 25.6 70 -8.3 17
20:50 1013 29.91 842 24.86 -3.5 25.8 67 -8.8 16.2
20:55 1013 29.91 842 24.86 -3.3 26.1 65 -9 15.7
21:00 1013 29.91 842 24.86 -3.2 26.3 65 -8.9 15.9
21:05 1013 29.91 842 24.86 -3.2 26.2 67 -8.5 16.7
21:10 1013 29.91 842 24.86 -3.5 25.7 73 -7.7 18.2
21:15 1013 29.91 842 24.86 -3.9 24.9 75 -7.7 18.1
21:20 1013 29.91 842 24.86 -4 24.8 73 -8.2 17.3
21:25 1013 29.91 842 24.86 -3.9 25 72 -8.2 17.2
21:30 1013 29.91 842 24.86 -3.9 24.9 72 -8.3 17
21:35 1013 29.91 842 24.86 -4 24.8 73 -8.2 17.2
21:40 1013 29.91 842 24.86 -4.1 24.6 74 -8.1 17.4
21:45 1013 29.91 842 24.86 -4.2 24.4 74 -8.1 17.4
21:50 1013 29.91 842 24.86 -4.1 24.5 73 -8.3 17.1
21:55 1013 29.91 842 24.86 -4.1 24.6 73 -8.3 17.1
22:00 1013 29.91 842 24.86 -4.1 24.6 74 -8.1 17.5
22:05 1013 29.91 842 24.86 -4.2 24.5 75 -8 17.6
22:10 1013 29.91 843 24.89 -4.3 24.3 76 -7.8 17.9
22:15 1013 29.91 843 24.89 -4.3 24.2 77 -7.8 17.9
22:20 1013 29.91 843 24.89 -4.3 24.2 76 -8 17.6
22:25 1013 29.91 843 24.89 -4.3 24.3 75 -8.1 17.4
22:30 1013 29.91 843 24.89 -4.2 24.4 74 -8.2 17.2
22:35 1013 29.91 843 24.89 -4.2 24.4 74 -8.3 17.1
22:40 1014 29.94 843 24.89 -4.2 24.5 73 -8.4 16.9
22:45 1014 29.94 843 24.89 -4.2 24.5 72 -8.5 16.7
22:50 1014 29.94 843 24.89 -4.1 24.6 72 -8.4 16.8
22:55 1014 29.94 843 24.89 -4.2 24.5 72 -8.5 16.7
23:00 1014 29.94 843 24.89 -4.2 24.5 72 -8.6 16.5
23:05 1014 29.94 843 24.89 -4.2 24.4 71 -8.7 16.3
23:10 1014 29.94 843 24.89 -4.2 24.4 71 -8.8 16.2
23:15 1014 29.94 843 24.89 -4.3 24.3 71 -8.8 16.2
23:20 1014 29.94 843 24.89 -4.3 24.3 70 -8.9 15.9
23:25 1014 29.94 843 24.89 -4.3 24.4 70 -9 15.8
23:30 1014 29.94 843 24.89 -4.3 24.3 69 -9.1 15.6
23:35 1014 29.94 843 24.89 -4.3 24.2 68 -9.4 15.1
23:40 1014 29.94 843 24.89 -4.4 24.1 68 -9.5 14.9
23:45 1014 29.94 843 24.89 -4.4 24 67 -9.6 14.6
23:50 1014 29.94 843 24.89 -4.5 24 67 -9.8 14.4
23:55 1014 29.94 843 24.89 -4.5 23.9 66 -9.9 14.1
24:00 1014 29.94 843 24.89 -4.5 24 66 -9.9 14.1